Time;durP1;ratioP1;P1;durP2;ratioP2;P2;SDS_P1;SDS_P2;PMS_P1;PMS_P2;Temp;Humidity;BMP_temperature;BMP_pressure;BME280_temperature;BME280_humidity;BME280_pressure;Samples;Min_cycle;Max_cycle;Signal;HPM_P1;HPM_P2
2022/10/23 00:00:27;;;;;;;63.37;34.70;;;;;;;;;;765029;181;926129;-67
2022/10/23 00:02:53;;;;;;;69.00;33.00;;;;;;;;;;770806;179;922125;-60
2022/10/23 00:05:19;;;;;;;69.47;33.88;;;;;;;;;;761979;180;923047;-68
2022/10/23 00:07:44;;;;;;;60.83;33.43;;;;;;;;;;766925;181;912706;-60
2022/10/23 00:10:10;;;;;;;65.50;35.80;;;;;;;;;;769951;181;918001;-68
2022/10/23 00:12:37;;;;;;;71.30;35.40;;;;;;;;;;767823;181;817623;-60
2022/10/23 00:15:02;;;;;;;68.60;32.77;;;;;;;;;;765878;180;919397;-68
2022/10/23 00:17:31;;;;;;;70.43;35.83;;;;;;;;;;769965;181;923197;-69
2022/10/23 00:19:54;;;;;;;63.40;34.87;;;;;;;;;;766114;180;919128;-61
2022/10/23 00:22:20;;;;;;;75.23;35.80;;;;;;;;;;766934;180;879212;-61
2022/10/23 00:24:45;;;;;;;66.05;35.63;;;;;;;;;;765069;178;816687;-61
2022/10/23 00:27:11;;;;;;;66.70;34.80;;;;;;;;;;773991;181;809918;-67
2022/10/23 00:29:37;;;;;;;61.83;33.27;;;;;;;;;;765720;179;842711;-68
2022/10/23 00:32:03;;;;;;;72.00;31.77;;;;;;;;;;766246;179;819700;-62
2022/10/23 00:34:29;;;;;;;58.53;33.17;;;;;;;;;;771914;181;914191;-68
2022/10/23 00:36:55;;;;;;;60.83;34.57;;;;;;;;;;764557;182;917656;-68
2022/10/23 00:39:21;;;;;;;67.22;34.42;;;;;;;;;;764339;181;927926;-61
2022/10/23 00:41:47;;;;;;;56.00;34.17;;;;;;;;;;767373;180;918393;-68
2022/10/23 00:44:31;;;;;;;56.70;31.80;;;;;;;;;;766321;179;919292;-70
2022/10/23 00:46:57;;;;;;;59.23;33.47;;;;;;;;;;761668;180;918282;-68
2022/10/23 00:49:24;;;;;;;58.20;33.70;;;;;;;;;;765896;181;919137;-69
2022/10/23 00:51:49;;;;;;;68.50;32.73;;;;;;;;;;763265;179;919090;-68
2022/10/23 00:54:15;;;;;;;62.67;30.50;;;;;;;;;;771354;181;918947;-68
2022/10/23 00:56:40;;;;;;;50.43;29.00;;;;;;;;;;767060;181;918844;-68
2022/10/23 00:59:06;;;;;;;67.90;32.70;;;;;;;;;;766117;178;918443;-61
2022/10/23 01:01:32;;;;;;;71.53;34.37;;;;;;;;;;772489;181;851843;-60
2022/10/23 01:03:58;;;;;;;55.90;33.90;;;;;;;;;;767177;181;919303;-68
2022/10/23 01:06:26;;;;;;;63.73;34.87;;;;;;;;;;757119;178;921468;-70
2022/10/23 01:08:52;;;;;;;63.63;34.03;;;;;;;;;;770346;181;918514;-61
2022/10/23 01:11:22;;;;;;;61.47;33.17;;;;;;;;;;763688;181;918953;-59
2022/10/23 01:13:48;;;;;;;60.77;35.67;;;;;;;;;;765579;181;919448;-68
2022/10/23 01:16:15;;;;;;;65.50;34.60;;;;;;;;;;765426;180;815942;-68
2022/10/23 01:18:41;;;;;;;63.97;35.17;;;;;;;;;;771274;181;839239;-67
2022/10/23 01:21:09;;;;;;;57.90;32.10;;;;;;;;;;768046;178;917943;-68
2022/10/23 01:23:53;;;;;;;56.10;33.57;;;;;;;;;;766347;181;919471;-60
2022/10/23 01:26:25;;;;;;;63.07;36.50;;;;;;;;;;766146;181;824579;-61
2022/10/23 01:28:51;;;;;;;56.00;30.90;;;;;;;;;;765205;180;919593;-61
2022/10/23 01:31:17;;;;;;;51.63;32.87;;;;;;;;;;769038;179;873942;-62
2022/10/23 01:33:44;;;;;;;58.53;33.87;;;;;;;;;;763661;181;912441;-68
2022/10/23 01:36:09;;;;;;;58.97;33.58;;;;;;;;;;763914;181;919426;-62
2022/10/23 01:38:39;;;;;;;54.60;31.07;;;;;;;;;;770966;181;911264;-68
2022/10/23 01:41:09;;;;;;;66.85;33.75;;;;;;;;;;771119;180;922479;-68
2022/10/23 01:43:40;;;;;;;65.70;33.90;;;;;;;;;;756759;183;919394;-62
2022/10/23 01:46:06;;;;;;;55.53;34.90;;;;;;;;;;743906;183;914163;-62
2022/10/23 01:48:31;;;;;;;57.70;31.90;;;;;;;;;;751839;183;918544;-61
2022/10/23 01:50:57;;;;;;;63.40;34.80;;;;;;;;;;763219;181;918872;-68
2022/10/23 01:53:23;;;;;;;54.43;30.23;;;;;;;;;;769239;180;913549;-60
2022/10/23 01:55:49;;;;;;;62.33;32.50;;;;;;;;;;768404;179;921108;-68
2022/10/23 01:58:15;;;;;;;55.23;31.70;;;;;;;;;;776836;178;920031;-69
2022/10/23 02:00:41;;;;;;;58.57;31.10;;;;;;;;;;768475;181;817443;-68
2022/10/23 02:03:06;;;;;;;54.10;29.83;;;;;;;;;;766536;181;918842;-62
2022/10/23 02:05:32;;;;;;;64.37;29.80;;;;;;;;;;771160;179;919026;-68
2022/10/23 02:07:58;;;;;;;58.50;34.53;;;;;;;;;;765277;181;919423;-61
2022/10/23 02:10:24;;;;;;;60.70;33.58;;;;;;;;;;767537;181;817281;-61
2022/10/23 02:12:55;;;;;;;60.60;34.77;;;;;;;;;;774155;181;817217;-68
2022/10/23 02:15:24;;;;;;;54.03;32.20;;;;;;;;;;770422;180;855535;-60
2022/10/23 02:17:51;;;;;;;59.50;32.90;;;;;;;;;;740803;187;919149;-67
2022/10/23 02:20:20;;;;;;;66.50;38.53;;;;;;;;;;745588;184;844465;-68
2022/10/23 02:22:46;;;;;;;72.07;34.53;;;;;;;;;;743497;187;918805;-68
2022/10/23 02:25:13;;;;;;;70.27;33.47;;;;;;;;;;728370;190;919158;-67
2022/10/23 02:27:39;;;;;;;68.47;36.37;;;;;;;;;;768097;180;867844;-60
2022/10/23 02:30:05;;;;;;;51.23;30.40;;;;;;;;;;751305;181;921203;-61
2022/10/23 02:32:31;;;;;;;62.70;33.07;;;;;;;;;;771839;178;911560;-60
2022/10/23 02:34:57;;;;;;;59.65;33.25;;;;;;;;;;765783;181;915825;-67
2022/10/23 02:37:24;;;;;;;62.80;35.03;;;;;;;;;;764680;181;916123;-62
2022/10/23 02:39:49;;;;;;;64.13;33.60;;;;;;;;;;769933;181;918840;-61
2022/10/23 02:42:29;;;;;;;61.07;33.40;;;;;;;;;;768696;181;920915;-68
2022/10/23 02:44:55;;;;;;;60.77;35.07;;;;;;;;;;767284;181;917252;-68
2022/10/23 02:47:27;;;;;;;52.73;30.93;;;;;;;;;;766947;180;918998;-62
2022/10/23 02:49:58;;;;;;;63.63;33.20;;;;;;;;;;766773;180;922865;-68
2022/10/23 02:52:24;;;;;;;56.43;31.00;;;;;;;;;;769541;181;918967;-68
2022/10/23 02:54:55;;;;;;;60.53;33.30;;;;;;;;;;764118;181;919684;-61
2022/10/23 02:57:22;;;;;;;54.55;31.80;;;;;;;;;;768842;179;918255;-61
2022/10/23 03:00:02;;;;;;;59.87;32.70;;;;;;;;;;755238;180;920558;-62
2022/10/23 03:02:29;;;;;;;62.10;32.93;;;;;;;;;;756166;183;819066;-67
2022/10/23 03:04:55;;;;;;;55.93;31.33;;;;;;;;;;764555;184;822300;-61
2022/10/23 03:07:21;;;;;;;61.80;34.60;;;;;;;;;;759496;180;920207;-62
2022/10/23 03:09:47;;;;;;;59.80;34.83;;;;;;;;;;766871;179;918909;-67
2022/10/23 03:12:12;;;;;;;59.20;33.47;;;;;;;;;;767692;182;817064;-68
2022/10/23 03:14:38;;;;;;;65.23;34.60;;;;;;;;;;750891;183;918506;-68
2022/10/23 03:17:04;;;;;;;58.27;30.57;;;;;;;;;;750381;183;918803;-62
2022/10/23 03:19:30;;;;;;;56.30;32.30;;;;;;;;;;758061;182;923448;-68
2022/10/23 03:21:56;;;;;;;61.17;31.70;;;;;;;;;;764949;180;919093;-68
2022/10/23 03:24:22;;;;;;;51.90;30.03;;;;;;;;;;765482;181;919166;-68
2022/10/23 03:26:48;;;;;;;56.95;28.62;;;;;;;;;;765599;182;919328;-67
2022/10/23 03:29:13;;;;;;;55.30;30.33;;;;;;;;;;753360;184;919101;-60
2022/10/23 03:31:39;;;;;;;57.20;30.07;;;;;;;;;;737482;187;918969;-68
2022/10/23 03:34:09;;;;;;;51.97;28.53;;;;;;;;;;747097;184;921416;-67
2022/10/23 03:36:31;;;;;;;56.33;29.50;;;;;;;;;;749103;184;919398;-61
2022/10/23 03:38:59;;;;;;;53.33;29.03;;;;;;;;;;753409;184;917682;-61
2022/10/23 03:41:23;;;;;;;55.90;29.30;;;;;;;;;;757675;183;921008;-60
2022/10/23 03:43:49;;;;;;;56.87;32.33;;;;;;;;;;750367;183;919946;-68
2022/10/23 03:46:14;;;;;;;53.63;30.57;;;;;;;;;;759174;183;922700;-62
2022/10/23 03:48:40;;;;;;;56.93;30.83;;;;;;;;;;765381;180;816750;-68
2022/10/23 03:51:06;;;;;;;60.27;29.90;;;;;;;;;;772038;182;815262;-62
2022/10/23 03:53:32;;;;;;;54.35;28.35;;;;;;;;;;766110;182;918992;-68
2022/10/23 03:55:58;;;;;;;66.63;30.60;;;;;;;;;;765776;179;919314;-68
2022/10/23 03:58:24;;;;;;;47.33;29.33;;;;;;;;;;764272;181;918665;-62
2022/10/23 04:00:49;;;;;;;58.13;30.87;;;;;;;;;;769153;181;919575;-61
2022/10/23 04:03:15;;;;;;;61.07;29.40;;;;;;;;;;765177;181;814927;-60
2022/10/23 04:05:41;;;;;;;59.58;28.62;;;;;;;;;;761964;180;915464;-68
2022/10/23 04:08:07;;;;;;;44.10;27.53;;;;;;;;;;767865;181;916651;-67
2022/10/23 04:10:33;;;;;;;62.93;28.67;;;;;;;;;;768221;181;919749;-68
2022/10/23 04:12:59;;;;;;;47.03;26.87;;;;;;;;;;758597;180;918175;-68
2022/10/23 04:15:25;;;;;;;53.27;27.73;;;;;;;;;;770336;181;920070;-68
2022/10/23 04:17:50;;;;;;;53.23;29.10;;;;;;;;;;758266;182;918919;-62
2022/10/23 04:20:16;;;;;;;57.20;29.63;;;;;;;;;;765992;180;919299;-67
2022/10/23 04:22:42;;;;;;;57.70;29.90;;;;;;;;;;768200;181;918404;-68
2022/10/23 04:25:08;;;;;;;57.00;28.20;;;;;;;;;;770272;181;916498;-60
2022/10/23 04:27:34;;;;;;;48.80;27.77;;;;;;;;;;744150;184;920571;-60
2022/10/23 04:30:00;;;;;;;64.60;29.53;;;;;;;;;;750399;184;916555;-68
2022/10/23 04:32:26;;;;;;;56.13;27.80;;;;;;;;;;777693;179;891786;-61
2022/10/23 04:34:51;;;;;;;57.30;28.43;;;;;;;;;;766093;182;920290;-67
2022/10/23 04:37:17;;;;;;;49.67;24.77;;;;;;;;;;765012;179;919192;-70
2022/10/23 04:39:43;;;;;;;46.20;23.43;;;;;;;;;;771366;181;916429;-62
2022/10/23 04:42:09;;;;;;;52.90;30.17;;;;;;;;;;767839;179;915893;-61
2022/10/23 04:44:35;;;;;;;50.93;26.87;;;;;;;;;;764718;181;915876;-62
2022/10/23 04:47:01;;;;;;;54.08;27.30;;;;;;;;;;766762;181;916667;-68
2022/10/23 04:49:27;;;;;;;47.97;26.00;;;;;;;;;;755877;185;920646;-67
2022/10/23 04:51:53;;;;;;;49.47;27.50;;;;;;;;;;747628;183;918852;-67
2022/10/23 04:54:18;;;;;;;50.30;25.30;;;;;;;;;;763914;179;817960;-68
2022/10/23 04:56:44;;;;;;;48.67;25.47;;;;;;;;;;770185;181;918944;-67
2022/10/23 04:59:10;;;;;;;43.43;25.50;;;;;;;;;;764708;182;816907;-66
2022/10/23 05:01:36;;;;;;;45.05;27.42;;;;;;;;;;764687;181;915747;-67
2022/10/23 05:04:02;;;;;;;48.67;28.67;;;;;;;;;;769382;181;813921;-67
2022/10/23 05:06:28;;;;;;;41.50;25.80;;;;;;;;;;761503;179;935755;-68
2022/10/23 05:08:54;;;;;;;55.97;26.60;;;;;;;;;;763049;182;915489;-67
2022/10/23 05:11:19;;;;;;;45.40;24.87;;;;;;;;;;770586;180;919922;-69
2022/10/23 05:13:45;;;;;;;43.83;25.00;;;;;;;;;;767273;181;956924;-59
2022/10/23 05:16:11;;;;;;;40.20;25.33;;;;;;;;;;764942;181;919028;-67
2022/10/23 05:18:37;;;;;;;39.07;22.63;;;;;;;;;;764622;181;918959;-64
2022/10/23 05:21:03;;;;;;;42.77;25.37;;;;;;;;;;768957;181;918601;-60
2022/10/23 05:23:29;;;;;;;39.37;22.53;;;;;;;;;;764100;182;924675;-60
2022/10/23 05:25:54;;;;;;;41.50;24.30;;;;;;;;;;763448;181;919580;-61
2022/10/23 05:28:20;;;;;;;34.23;22.03;;;;;;;;;;769390;181;918634;-61
2022/10/23 05:30:46;;;;;;;33.73;19.30;;;;;;;;;;765803;180;1020346;-69
2022/10/23 05:33:12;;;;;;;30.37;19.30;;;;;;;;;;765542;179;922379;-67
2022/10/23 05:35:38;;;;;;;31.83;18.57;;;;;;;;;;770573;181;919389;-67
2022/10/23 05:38:04;;;;;;;45.47;20.93;;;;;;;;;;765569;181;919137;-60
2022/10/23 05:40:29;;;;;;;32.45;20.65;;;;;;;;;;768556;181;817629;-60
2022/10/23 05:42:55;;;;;;;32.57;20.40;;;;;;;;;;766306;181;920631;-66
2022/10/23 05:45:21;;;;;;;43.57;24.03;;;;;;;;;;776689;180;818306;-61
2022/10/23 05:47:48;;;;;;;46.63;26.03;;;;;;;;;;766877;177;916915;-68
2022/10/23 05:50:13;;;;;;;44.23;27.07;;;;;;;;;;755831;179;919125;-67
2022/10/23 05:52:39;;;;;;;45.50;27.97;;;;;;;;;;768357;181;816715;-67
2022/10/23 05:55:05;;;;;;;50.10;28.73;;;;;;;;;;768606;179;893023;-67
2022/10/23 05:57:32;;;;;;;46.63;28.97;;;;;;;;;;766598;181;816664;-67
2022/10/23 05:59:58;;;;;;;58.57;32.97;;;;;;;;;;770711;180;903972;-60
2022/10/23 06:02:23;;;;;;;53.97;29.00;;;;;;;;;;766173;181;918195;-67
2022/10/23 06:04:49;;;;;;;52.40;30.70;;;;;;;;;;766235;180;915336;-69
2022/10/23 06:07:15;;;;;;;52.83;32.00;;;;;;;;;;756846;180;917535;-67
2022/10/23 06:09:41;;;;;;;58.13;31.30;;;;;;;;;;754360;183;920621;-60
2022/10/23 06:12:07;;;;;;;53.97;31.50;;;;;;;;;;755336;179;843889;-68
2022/10/23 06:14:33;;;;;;;55.50;31.53;;;;;;;;;;764095;179;824342;-67
2022/10/23 06:16:58;;;;;;;54.40;29.40;;;;;;;;;;768604;180;817066;-59
2022/10/23 06:19:24;;;;;;;56.10;30.67;;;;;;;;;;764109;180;916766;-68
2022/10/23 06:21:50;;;;;;;44.40;30.48;;;;;;;;;;762499;181;917033;-61
2022/10/23 06:24:16;;;;;;;57.30;29.90;;;;;;;;;;767648;179;918909;-67
2022/10/23 06:26:42;;;;;;;53.97;31.20;;;;;;;;;;765560;181;908230;-68
2022/10/23 06:29:08;;;;;;;50.07;30.50;;;;;;;;;;765139;179;918065;-59
2022/10/23 06:31:34;;;;;;;50.67;31.20;;;;;;;;;;768924;181;919568;-67
2022/10/23 06:34:00;;;;;;;65.47;36.20;;;;;;;;;;772658;180;919990;-60
2022/10/23 06:36:26;;;;;;;46.10;33.23;;;;;;;;;;763743;179;855759;-60
2022/10/23 06:38:52;;;;;;;52.50;31.77;;;;;;;;;;763740;180;909792;-61
2022/10/23 06:41:18;;;;;;;63.00;33.23;;;;;;;;;;770394;181;894920;-68
2022/10/23 06:43:44;;;;;;;52.13;31.37;;;;;;;;;;764251;179;917956;-67
2022/10/23 06:46:09;;;;;;;54.50;32.42;;;;;;;;;;768148;179;876279;-69
2022/10/23 06:48:35;;;;;;;55.10;32.57;;;;;;;;;;771776;180;764498;-67
2022/10/23 06:51:03;;;;;;;55.93;33.80;;;;;;;;;;767978;181;878817;-67
2022/10/23 06:53:29;;;;;;;55.53;31.37;;;;;;;;;;767817;179;915946;-67
2022/10/23 06:55:57;;;;;;;52.90;32.17;;;;;;;;;;765321;180;919803;-61
2022/10/23 06:58:24;;;;;;;61.93;33.93;;;;;;;;;;763398;182;919113;-68
2022/10/23 07:00:49;;;;;;;49.33;33.10;;;;;;;;;;748257;183;918452;-68
2022/10/23 07:03:15;;;;;;;52.92;32.90;;;;;;;;;;746062;183;915629;-67
2022/10/23 07:05:43;;;;;;;48.87;27.83;;;;;;;;;;755809;183;915462;-60
2022/10/23 07:08:07;;;;;;;43.23;28.10;;;;;;;;;;762310;181;926796;-61
2022/10/23 07:10:32;;;;;;;56.93;27.90;;;;;;;;;;764337;179;917890;-60
2022/10/23 07:12:59;;;;;;;50.50;32.10;;;;;;;;;;772663;179;896447;-67
2022/10/23 07:15:24;;;;;;;53.13;31.53;;;;;;;;;;768236;181;879967;-67
2022/10/23 07:17:50;;;;;;;40.70;28.63;;;;;;;;;;766556;180;881556;-59
2022/10/23 07:20:16;;;;;;;39.60;27.40;;;;;;;;;;764820;181;883009;-59
2022/10/23 07:22:42;;;;;;;35.53;24.00;;;;;;;;;;760063;181;811185;-60
2022/10/23 07:25:08;;;;;;;32.83;24.37;;;;;;;;;;755337;183;922683;-68
2022/10/23 07:27:33;;;;;;;42.47;25.47;;;;;;;;;;755464;183;915186;-60
2022/10/23 07:29:59;;;;;;;19.60;14.33;;;;;;;;;;763422;181;917802;-61
2022/10/23 07:32:27;;;;;;;18.67;12.73;;;;;;;;;;749365;183;911002;-61
2022/10/23 07:34:51;;;;;;;17.80;12.87;;;;;;;;;;748386;183;918701;-68
2022/10/23 07:37:17;;;;;;;18.52;12.40;;;;;;;;;;755681;183;918380;-68
2022/10/23 07:39:43;;;;;;;18.17;10.80;;;;;;;;;;755682;183;918320;-67
2022/10/23 07:42:09;;;;;;;15.23;9.97;;;;;;;;;;749311;183;935811;-60
2022/10/23 07:44:35;;;;;;;14.95;8.80;;;;;;;;;;753212;183;918807;-67
2022/10/23 07:47:00;;;;;;;15.77;9.13;;;;;;;;;;760713;184;919447;-69
2022/10/23 07:49:26;;;;;;;16.30;9.97;;;;;;;;;;755550;183;630454;-68
2022/10/23 07:51:52;;;;;;;11.37;7.90;;;;;;;;;;765696;181;816825;-68
2022/10/23 07:54:18;;;;;;;12.77;7.93;;;;;;;;;;772905;181;818516;-61
2022/10/23 07:56:44;;;;;;;12.50;9.00;;;;;;;;;;767024;179;626471;-67
2022/10/23 07:59:11;;;;;;;14.70;8.30;;;;;;;;;;756137;182;633388;-68
2022/10/23 08:01:36;;;;;;;16.60;9.63;;;;;;;;;;773628;176;628315;-60
2022/10/23 08:04:02;;;;;;;13.17;7.97;;;;;;;;;;755219;180;918847;-60
2022/10/23 08:06:28;;;;;;;11.57;9.37;;;;;;;;;;749604;183;923258;-61
2022/10/23 08:08:55;;;;;;;11.70;7.82;;;;;;;;;;761356;183;917441;-66
2022/10/23 08:11:24;;;;;;;16.27;9.53;;;;;;;;;;755441;183;899011;-68
2022/10/23 08:13:46;;;;;;;12.80;8.70;;;;;;;;;;746225;184;919185;-61
2022/10/23 08:16:12;;;;;;;13.00;9.10;;;;;;;;;;751189;183;915719;-68
2022/10/23 08:18:40;;;;;;;12.03;8.67;;;;;;;;;;759702;183;915796;-69
2022/10/23 08:21:04;;;;;;;16.10;9.20;;;;;;;;;;760911;181;919407;-60
2022/10/23 08:23:30;;;;;;;13.43;9.07;;;;;;;;;;763623;181;919908;-68
2022/10/23 08:25:56;;;;;;;14.50;9.67;;;;;;;;;;768972;179;893335;-60
2022/10/23 08:28:22;;;;;;;13.63;8.87;;;;;;;;;;765035;180;918955;-68
2022/10/23 08:30:47;;;;;;;10.85;8.48;;;;;;;;;;765614;180;921139;-68
2022/10/23 08:33:13;;;;;;;12.23;8.50;;;;;;;;;;769557;181;921011;-69
2022/10/23 08:35:39;;;;;;;12.18;9.52;;;;;;;;;;765159;181;913408;-61
2022/10/23 08:38:05;;;;;;;12.93;8.93;;;;;;;;;;763116;181;916264;-71
2022/10/23 08:40:31;;;;;;;13.03;8.93;;;;;;;;;;764675;181;904324;-68
2022/10/23 08:42:57;;;;;;;12.10;8.37;;;;;;;;;;770972;181;617207;-60
2022/10/23 08:45:37;;;;;;;10.83;8.10;;;;;;;;;;765472;179;919746;-61
2022/10/23 08:48:03;;;;;;;15.43;8.65;;;;;;;;;;764605;180;921554;-71
2022/10/23 08:50:29;;;;;;;14.10;9.13;;;;;;;;;;766378;180;940575;-62
2022/10/23 08:52:59;;;;;;;12.70;9.07;;;;;;;;;;772882;181;818856;-62
2022/10/23 08:55:25;;;;;;;10.83;8.90;;;;;;;;;;768162;181;819420;-71
2022/10/23 08:57:57;;;;;;;13.33;9.10;;;;;;;;;;764085;181;918131;-71
2022/10/23 09:00:23;;;;;;;16.33;9.77;;;;;;;;;;765659;181;919405;-69
2022/10/23 09:02:49;;;;;;;13.87;9.43;;;;;;;;;;769799;181;918662;-71
2022/10/23 09:05:15;;;;;;;16.97;11.00;;;;;;;;;;765761;179;918138;-62
2022/10/23 09:07:49;;;;;;;13.97;9.83;;;;;;;;;;766512;180;816635;-62
2022/10/23 09:10:30;;;;;;;14.53;10.53;;;;;;;;;;767235;181;811434;-62
2022/10/23 09:13:00;;;;;;;17.10;9.93;;;;;;;;;;751747;181;918612;-70
2022/10/23 09:15:27;;;;;;;15.50;10.30;;;;;;;;;;761841;180;823419;-61
2022/10/23 09:17:53;;;;;;;13.57;10.60;;;;;;;;;;763134;180;941471;-62
2022/10/23 09:20:20;;;;;;;19.10;10.48;;;;;;;;;;762536;180;917188;-61
2022/10/23 09:22:47;;;;;;;13.67;9.37;;;;;;;;;;769584;180;842495;-70
2022/10/23 09:25:18;;;;;;;12.77;9.40;;;;;;;;;;767894;178;916124;-62
2022/10/23 09:27:45;;;;;;;14.97;10.47;;;;;;;;;;756210;179;932216;-60
2022/10/23 09:30:11;;;;;;;13.03;9.80;;;;;;;;;;765169;178;918869;-62
2022/10/23 09:32:37;;;;;;;14.40;10.97;;;;;;;;;;754539;183;911260;-62
2022/10/23 09:35:03;;;;;;;12.50;9.70;;;;;;;;;;759310;179;922407;-61
2022/10/23 09:37:29;;;;;;;13.90;9.37;;;;;;;;;;764116;178;920469;-61
2022/10/23 09:39:59;;;;;;;13.13;8.80;;;;;;;;;;768367;179;810899;-62
2022/10/23 09:42:25;;;;;;;12.77;9.30;;;;;;;;;;768758;180;922422;-71
2022/10/23 09:44:51;;;;;;;12.10;10.03;;;;;;;;;;750056;183;921406;-62
2022/10/23 09:47:19;;;;;;;15.00;9.37;;;;;;;;;;749582;183;921268;-63
2022/10/23 09:49:45;;;;;;;13.40;9.47;;;;;;;;;;754431;183;887531;-62
2022/10/23 09:52:26;;;;;;;11.60;9.07;;;;;;;;;;747980;184;951848;-72
2022/10/23 09:54:54;;;;;;;12.30;9.00;;;;;;;;;;760103;178;917973;-72
2022/10/23 09:57:25;;;;;;;11.63;10.00;;;;;;;;;;754403;184;923972;-73
2022/10/23 09:59:51;;;;;;;15.30;9.03;;;;;;;;;;762625;181;889782;-70
2022/10/23 10:02:18;;;;;;;11.37;8.43;;;;;;;;;;768559;181;919400;-61
2022/10/23 10:04:44;;;;;;;15.13;9.40;;;;;;;;;;760963;181;920601;-72
2022/10/23 10:07:28;;;;;;;13.97;9.07;;;;;;;;;;757876;180;918984;-73
2022/10/23 10:09:54;;;;;;;18.50;11.70;;;;;;;;;;765935;181;824031;-61
2022/10/23 10:12:22;;;;;;;14.80;8.70;;;;;;;;;;766924;181;918972;-61
2022/10/23 10:14:47;;;;;;;10.23;8.70;;;;;;;;;;763480;181;914447;-71
2022/10/23 10:17:16;;;;;;;9.37;8.00;;;;;;;;;;765574;180;918624;-72
2022/10/23 10:19:57;;;;;;;13.70;9.03;;;;;;;;;;765019;180;918704;-61
2022/10/23 10:22:28;;;;;;;12.07;8.20;;;;;;;;;;762670;180;925387;-62
2022/10/23 10:24:55;;;;;;;12.40;9.20;;;;;;;;;;757145;183;850288;-73
2022/10/23 10:27:23;;;;;;;13.47;8.20;;;;;;;;;;747536;184;920362;-73
2022/10/23 10:29:49;;;;;;;12.93;9.00;;;;;;;;;;753823;183;921328;-72
2022/10/23 10:32:19;;;;;;;10.40;7.63;;;;;;;;;;747959;183;918790;-60
2022/10/23 10:34:44;;;;;;;11.53;9.57;;;;;;;;;;757027;184;621544;-61
2022/10/23 10:37:11;;;;;;;10.43;9.10;;;;;;;;;;749841;184;924375;-73
2022/10/23 10:39:41;;;;;;;10.80;8.10;;;;;;;;;;752802;183;920154;-73
2022/10/23 10:42:25;;;;;;;11.83;8.77;;;;;;;;;;767796;181;823113;-71
2022/10/23 10:44:55;;;;;;;12.52;8.93;;;;;;;;;;751209;181;901043;-61
2022/10/23 10:47:24;;;;;;;12.57;8.15;;;;;;;;;;758684;183;919324;-60
2022/10/23 10:49:48;;;;;;;12.30;8.90;;;;;;;;;;762790;181;1021800;-61
2022/10/23 10:52:15;;;;;;;9.27;7.80;;;;;;;;;;762363;181;918280;-60
2022/10/23 10:54:41;;;;;;;11.87;8.03;;;;;;;;;;768728;181;828666;-61
2022/10/23 10:57:11;;;;;;;9.37;8.27;;;;;;;;;;765140;181;919521;-71
2022/10/23 10:59:36;;;;;;;13.70;9.30;;;;;;;;;;763510;181;920538;-60
2022/10/23 11:02:05;;;;;;;11.37;7.67;;;;;;;;;;764902;179;918858;-71
2022/10/23 11:04:34;;;;;;;10.00;7.60;;;;;;;;;;768993;179;919738;-61
2022/10/23 11:06:59;;;;;;;13.90;9.00;;;;;;;;;;765302;180;880949;-60
2022/10/23 11:09:26;;;;;;;13.03;7.90;;;;;;;;;;763590;181;916354;-60
2022/10/23 11:11:52;;;;;;;13.67;9.13;;;;;;;;;;767027;180;921109;-70
2022/10/23 11:14:18;;;;;;;12.10;8.57;;;;;;;;;;765307;180;859455;-61
2022/10/23 11:16:44;;;;;;;9.27;7.53;;;;;;;;;;762906;181;1311166;-60
2022/10/23 11:19:11;;;;;;;11.27;7.90;;;;;;;;;;763587;179;924166;-61
2022/10/23 11:21:52;;;;;;;12.00;9.50;;;;;;;;;;770851;180;876778;-60
2022/10/23 11:24:32;;;;;;;10.50;7.50;;;;;;;;;;772667;178;918570;-60
2022/10/23 11:27:03;;;;;;;10.20;7.90;;;;;;;;;;773280;180;816320;-72
2022/10/23 11:29:35;;;;;;;10.50;8.90;;;;;;;;;;757795;179;919615;-72
2022/10/23 11:32:07;;;;;;;10.13;7.43;;;;;;;;;;760138;181;914555;-71
2022/10/23 11:34:47;;;;;;;12.60;8.50;;;;;;;;;;768879;180;912170;-60
2022/10/23 11:37:15;;;;;;;10.63;8.93;;;;;;;;;;763607;178;911909;-70
2022/10/23 11:39:41;;;;;;;10.00;8.20;;;;;;;;;;761187;181;817121;-71
2022/10/23 11:42:14;;;;;;;10.97;6.87;;;;;;;;;;766868;179;923400;-72
2022/10/23 11:44:40;;;;;;;9.80;6.50;;;;;;;;;;766568;181;919164;-61
2022/10/23 11:47:06;;;;;;;13.37;7.33;;;;;;;;;;765679;181;936063;-71
2022/10/23 11:49:32;;;;;;;10.43;6.90;;;;;;;;;;773032;180;846743;-61
2022/10/23 11:51:59;;;;;;;9.57;7.67;;;;;;;;;;767896;181;920793;-70
2022/10/23 11:54:26;;;;;;;11.03;7.10;;;;;;;;;;765367;180;918573;-71
2022/10/23 11:56:57;;;;;;;11.70;7.30;;;;;;;;;;770329;179;918048;-61
2022/10/23 11:59:25;;;;;;;9.63;7.00;;;;;;;;;;760738;180;818399;-60
2022/10/23 12:01:51;;;;;;;12.60;6.80;;;;;;;;;;763881;179;912122;-61
2022/10/23 12:04:19;;;;;;;12.05;7.57;;;;;;;;;;752679;181;839578;-61
2022/10/23 12:06:46;;;;;;;9.27;7.30;;;;;;;;;;769246;181;914905;-69
2022/10/23 12:09:18;;;;;;;8.13;7.03;;;;;;;;;;767760;181;818731;-71
2022/10/23 12:11:44;;;;;;;10.70;6.30;;;;;;;;;;763146;181;918157;-60
2022/10/23 12:14:11;;;;;;;8.10;5.87;;;;;;;;;;767068;181;918785;-70
2022/10/23 12:16:37;;;;;;;7.57;5.73;;;;;;;;;;768214;181;860036;-69
2022/10/23 12:19:09;;;;;;;7.10;5.47;;;;;;;;;;767180;181;912329;-70
2022/10/23 12:21:36;;;;;;;9.52;6.87;;;;;;;;;;767059;181;918847;-60
2022/10/23 12:24:02;;;;;;;9.30;6.17;;;;;;;;;;767943;179;918702;-68
2022/10/23 12:26:28;;;;;;;10.33;6.77;;;;;;;;;;757703;183;919234;-70
2022/10/23 12:29:01;;;;;;;7.80;5.80;;;;;;;;;;749117;183;915334;-70
2022/10/23 12:31:41;;;;;;;9.40;6.30;;;;;;;;;;762129;181;920432;-60
2022/10/23 12:34:08;;;;;;;8.50;5.47;;;;;;;;;;761552;181;916818;-70
2022/10/23 12:36:39;;;;;;;10.30;5.73;;;;;;;;;;769271;181;915917;-60
2022/10/23 12:39:05;;;;;;;7.67;5.50;;;;;;;;;;770873;180;817963;-61
2022/10/23 12:41:31;;;;;;;9.50;6.57;;;;;;;;;;764112;180;917694;-70
2022/10/23 12:43:57;;;;;;;11.10;5.83;;;;;;;;;;766132;179;917463;-68
2022/10/23 12:46:28;;;;;;;8.60;5.57;;;;;;;;;;761875;181;918077;-60
2022/10/23 12:48:53;;;;;;;6.97;5.77;;;;;;;;;;765859;182;919691;-60
2022/10/23 12:51:23;;;;;;;9.33;6.90;;;;;;;;;;766530;181;919532;-61
2022/10/23 12:53:49;;;;;;;11.00;5.97;;;;;;;;;;763572;181;919004;-69
2022/10/23 12:56:15;;;;;;;9.10;7.20;;;;;;;;;;772097;179;916129;-70
2022/10/23 12:58:41;;;;;;;9.52;6.22;;;;;;;;;;762029;181;916293;-70
2022/10/23 13:01:07;;;;;;;9.93;6.27;;;;;;;;;;765476;181;916439;-69
2022/10/23 13:03:33;;;;;;;9.13;6.13;;;;;;;;;;769469;181;915437;-61
2022/10/23 13:06:01;;;;;;;15.40;7.83;;;;;;;;;;768646;181;915117;-61
2022/10/23 13:08:24;;;;;;;10.67;7.97;;;;;;;;;;764158;181;912882;-69
2022/10/23 13:10:50;;;;;;;16.13;8.90;;;;;;;;;;770855;180;917731;-59
2022/10/23 13:13:16;;;;;;;13.97;9.33;;;;;;;;;;763011;181;919389;-60
2022/10/23 13:15:42;;;;;;;14.03;9.80;;;;;;;;;;763870;181;876634;-69
2022/10/23 13:18:08;;;;;;;13.03;8.57;;;;;;;;;;762765;179;918772;-68
2022/10/23 13:20:34;;;;;;;17.60;9.27;;;;;;;;;;769580;178;917719;-60
2022/10/23 13:23:00;;;;;;;18.00;10.73;;;;;;;;;;748373;184;917013;-60
2022/10/23 13:25:28;;;;;;;17.02;10.60;;;;;;;;;;748766;183;919407;-61
2022/10/23 13:28:00;;;;;;;14.73;11.20;;;;;;;;;;767310;179;916154;-61
2022/10/23 13:30:27;;;;;;;13.53;10.27;;;;;;;;;;764431;180;916780;-69
2022/10/23 13:32:53;;;;;;;24.75;16.35;;;;;;;;;;758349;181;917148;-70
2022/10/23 13:35:19;;;;;;;16.63;13.07;;;;;;;;;;747772;184;900577;-60
2022/10/23 13:37:45;;;;;;;19.20;12.73;;;;;;;;;;763123;181;908795;-69
2022/10/23 13:40:25;;;;;;;14.30;11.23;;;;;;;;;;765327;179;835496;-60
2022/10/23 13:42:51;;;;;;;13.17;10.63;;;;;;;;;;755609;182;919394;-69
2022/10/23 13:45:18;;;;;;;17.67;11.37;;;;;;;;;;755874;181;919825;-59
2022/10/23 13:47:44;;;;;;;19.70;14.40;;;;;;;;;;770771;181;919125;-68
2022/10/23 13:50:10;;;;;;;16.73;12.50;;;;;;;;;;764875;179;918685;-60
2022/10/23 13:52:36;;;;;;;14.33;10.07;;;;;;;;;;767267;180;919438;-61
2022/10/23 13:55:01;;;;;;;24.23;11.73;;;;;;;;;;772055;179;922293;-68
2022/10/23 13:57:27;;;;;;;13.10;10.77;;;;;;;;;;764727;181;919975;-61
2022/10/23 13:59:53;;;;;;;16.90;12.00;;;;;;;;;;763396;181;918934;-60
2022/10/23 14:02:19;;;;;;;16.40;11.87;;;;;;;;;;761889;179;921050;-67
2022/10/23 14:04:46;;;;;;;16.57;11.73;;;;;;;;;;754034;183;910872;-68
2022/10/23 14:07:11;;;;;;;17.13;12.80;;;;;;;;;;749894;184;918948;-68